sensor_id;sensor_type;location;lat;lon;timestamp;pressure;altitude;pressure_sealevel;temperature;humidity
17764;BME280;22245;52.832;13.816;2023-09-30T00:00:45;101721.66;;;17.50;79.19
17764;BME280;22245;52.832;13.816;2023-09-30T00:04:08;101716.78;;;17.36;80.59
17764;BME280;22245;52.832;13.816;2023-09-30T00:07:30;101727.94;;;17.41;80.44
17764;BME280;22245;52.832;13.816;2023-09-30T00:10:51;101738.19;;;17.38;80.67
17764;BME280;22245;52.832;13.816;2023-09-30T00:14:15;101740.31;;;17.34;80.92
17764;BME280;22245;52.832;13.816;2023-09-30T00:17:37;101740.41;;;17.24;81.44
17764;BME280;22245;52.832;13.816;2023-09-30T00:21:00;101740.25;;;17.26;81.75
17764;BME280;22245;52.832;13.816;2023-09-30T00:24:21;101758.00;;;17.18;81.84
17764;BME280;22245;52.832;13.816;2023-09-30T00:27:42;101747.53;;;17.15;81.97
17764;BME280;22245;52.832;13.816;2023-09-30T00:31:06;101765.81;;;17.12;81.37
17764;BME280;22245;52.832;13.816;2023-09-30T00:34:32;101771.19;;;17.12;80.42
17764;BME280;22245;52.832;13.816;2023-09-30T00:37:55;101780.00;;;17.04;79.52
17764;BME280;22245;52.832;13.816;2023-09-30T00:41:16;101776.34;;;16.95;79.20
17764;BME280;22245;52.832;13.816;2023-09-30T00:44:38;101785.56;;;16.92;79.14
17764;BME280;22245;52.832;13.816;2023-09-30T00:48:01;101779.47;;;16.90;78.84
17764;BME280;22245;52.832;13.816;2023-09-30T00:51:24;101787.84;;;16.87;78.90
17764;BME280;22245;52.832;13.816;2023-09-30T00:54:48;101790.13;;;16.82;79.13
17764;BME280;22245;52.832;13.816;2023-09-30T00:58:10;101789.72;;;16.77;79.86
17764;BME280;22245;52.832;13.816;2023-09-30T01:01:32;101799.63;;;16.76;78.85
17764;BME280;22245;52.832;13.816;2023-09-30T01:04:55;101804.06;;;16.68;78.69
17764;BME280;22245;52.832;13.816;2023-09-30T01:08:17;101799.63;;;16.67;77.76
17764;BME280;22245;52.832;13.816;2023-09-30T01:11:42;101824.31;;;16.62;76.57
17764;BME280;22245;52.832;13.816;2023-09-30T01:15:04;101828.69;;;16.53;75.90
17764;BME280;22245;52.832;13.816;2023-09-30T01:18:28;101835.22;;;16.41;75.73
17764;BME280;22245;52.832;13.816;2023-09-30T01:21:52;101827.16;;;16.31;76.10
17764;BME280;22245;52.832;13.816;2023-09-30T01:25:17;101841.47;;;16.22;76.15
17764;BME280;22245;52.832;13.816;2023-09-30T01:28:39;101847.41;;;16.15;75.91
17764;BME280;22245;52.832;13.816;2023-09-30T01:32:02;101848.94;;;16.08;75.88
17764;BME280;22245;52.832;13.816;2023-09-30T01:35:25;101850.63;;;15.99;75.81
17764;BME280;22245;52.832;13.816;2023-09-30T01:38:48;101861.09;;;15.93;76.25
17764;BME280;22245;52.832;13.816;2023-09-30T01:42:10;101865.28;;;15.85;76.41
17764;BME280;22245;52.832;13.816;2023-09-30T01:45:31;101865.97;;;15.77;76.44
17764;BME280;22245;52.832;13.816;2023-09-30T01:48:53;101874.84;;;15.68;76.63
17764;BME280;22245;52.832;13.816;2023-09-30T01:52:14;101869.06;;;15.63;77.21
17764;BME280;22245;52.832;13.816;2023-09-30T01:55:37;101872.81;;;15.51;77.69
17764;BME280;22245;52.832;13.816;2023-09-30T01:58:59;101884.41;;;15.51;77.47
17764;BME280;22245;52.832;13.816;2023-09-30T02:02:20;101890.75;;;15.50;77.76
17764;BME280;22245;52.832;13.816;2023-09-30T02:05:41;101892.31;;;15.43;77.79
17764;BME280;22245;52.832;13.816;2023-09-30T02:09:03;101901.72;;;15.37;78.24
17764;BME280;22245;52.832;13.816;2023-09-30T02:12:29;101898.59;;;15.32;78.36
17764;BME280;22245;52.832;13.816;2023-09-30T02:15:51;101908.63;;;15.30;78.55
17764;BME280;22245;52.832;13.816;2023-09-30T02:19:15;101909.44;;;15.30;79.24
17764;BME280;22245;52.832;13.816;2023-09-30T02:22:37;101912.28;;;15.29;78.99
17764;BME280;22245;52.832;13.816;2023-09-30T02:25:59;101925.81;;;15.27;78.84
17764;BME280;22245;52.832;13.816;2023-09-30T02:29:22;101916.75;;;15.18;79.57
17764;BME280;22245;52.832;13.816;2023-09-30T02:32:44;101913.47;;;15.15;79.81
17764;BME280;22245;52.832;13.816;2023-09-30T02:36:07;101924.03;;;15.07;80.42
17764;BME280;22245;52.832;13.816;2023-09-30T02:39:29;101921.47;;;15.05;80.08
17764;BME280;22245;52.832;13.816;2023-09-30T02:42:51;101927.38;;;14.99;81.00
17764;BME280;22245;52.832;13.816;2023-09-30T02:46:14;101937.63;;;14.94;80.47
17764;BME280;22245;52.832;13.816;2023-09-30T02:49:36;101943.25;;;14.90;80.27
17764;BME280;22245;52.832;13.816;2023-09-30T02:52:59;101946.59;;;14.83;81.58
17764;BME280;22245;52.832;13.816;2023-09-30T02:56:20;101957.72;;;14.78;81.57
17764;BME280;22245;52.832;13.816;2023-09-30T02:59:44;101959.19;;;14.71;81.00
17764;BME280;22245;52.832;13.816;2023-09-30T03:03:08;101957.72;;;14.67;81.36
17764;BME280;22245;52.832;13.816;2023-09-30T03:06:30;101955.56;;;14.60;81.67
17764;BME280;22245;52.832;13.816;2023-09-30T03:09:52;101963.25;;;14.54;82.47
17764;BME280;22245;52.832;13.816;2023-09-30T03:13:14;101967.31;;;14.48;82.40
17764;BME280;22245;52.832;13.816;2023-09-30T03:16:35;101972.44;;;14.40;82.75
17764;BME280;22245;52.832;13.816;2023-09-30T03:20:01;101962.94;;;14.36;82.83
17764;BME280;22245;52.832;13.816;2023-09-30T03:23:22;101980.00;;;14.35;82.98
17764;BME280;22245;52.832;13.816;2023-09-30T03:26:49;101991.59;;;14.24;84.35
17764;BME280;22245;52.832;13.816;2023-09-30T03:30:11;101989.91;;;14.11;84.30
17764;BME280;22245;52.832;13.816;2023-09-30T03:33:33;101987.72;;;14.05;84.82
17764;BME280;22245;52.832;13.816;2023-09-30T03:36:56;101998.19;;;13.97;85.42
17764;BME280;22245;52.832;13.816;2023-09-30T03:40:20;101997.72;;;13.92;85.79
17764;BME280;22245;52.832;13.816;2023-09-30T03:43:47;101982.00;;;13.87;86.29
17764;BME280;22245;52.832;13.816;2023-09-30T03:47:09;101983.72;;;13.77;86.89
17764;BME280;22245;52.832;13.816;2023-09-30T03:50:31;101987.88;;;13.69;87.12
17764;BME280;22245;52.832;13.816;2023-09-30T03:53:54;101985.44;;;13.66;87.48
17764;BME280;22245;52.832;13.816;2023-09-30T03:57:16;101987.38;;;13.64;87.80
17764;BME280;22245;52.832;13.816;2023-09-30T04:00:38;101993.06;;;13.59;87.97
17764;BME280;22245;52.832;13.816;2023-09-30T04:04:00;102004.88;;;13.57;88.57
17764;BME280;22245;52.832;13.816;2023-09-30T04:07:22;102001.22;;;13.58;88.27
17764;BME280;22245;52.832;13.816;2023-09-30T04:10:48;102012.41;;;13.52;89.35
17764;BME280;22245;52.832;13.816;2023-09-30T04:14:10;102020.56;;;13.50;89.06
17764;BME280;22245;52.832;13.816;2023-09-30T04:17:31;102014.47;;;13.48;89.14
17764;BME280;22245;52.832;13.816;2023-09-30T04:20:53;102016.53;;;13.44;89.79
17764;BME280;22245;52.832;13.816;2023-09-30T04:24:15;102019.31;;;13.43;89.90
17764;BME280;22245;52.832;13.816;2023-09-30T04:27:37;102034.97;;;13.36;90.34
17764;BME280;22245;52.832;13.816;2023-09-30T04:30:59;102034.47;;;13.31;90.71
17764;BME280;22245;52.832;13.816;2023-09-30T04:34:22;102045.03;;;13.32;90.86
17764;BME280;22245;52.832;13.816;2023-09-30T04:37:44;102044.44;;;13.29;91.14
17764;BME280;22245;52.832;13.816;2023-09-30T04:41:06;102046.84;;;13.21;91.64
17764;BME280;22245;52.832;13.816;2023-09-30T04:44:29;102050.25;;;13.23;91.59
17764;BME280;22245;52.832;13.816;2023-09-30T04:47:50;102046.72;;;13.22;91.93
17764;BME280;22245;52.832;13.816;2023-09-30T04:51:12;102045.13;;;13.20;92.19
17764;BME280;22245;52.832;13.816;2023-09-30T04:54:36;102044.16;;;13.21;92.05
17764;BME280;22245;52.832;13.816;2023-09-30T04:57:58;102041.72;;;13.17;92.44
17764;BME280;22245;52.832;13.816;2023-09-30T05:01:21;102043.88;;;13.12;92.95
17764;BME280;22245;52.832;13.816;2023-09-30T05:04:42;102045.34;;;13.16;92.66
17764;BME280;22245;52.832;13.816;2023-09-30T05:08:05;102052.88;;;13.11;92.84
17764;BME280;22245;52.832;13.816;2023-09-30T05:11:27;102050.94;;;13.13;93.18
17764;BME280;22245;52.832;13.816;2023-09-30T05:14:48;102046.78;;;13.09;93.50
17764;BME280;22245;52.832;13.816;2023-09-30T05:18:10;102052.28;;;13.08;93.57
17764;BME280;22245;52.832;13.816;2023-09-30T05:21:32;102066.50;;;13.08;93.95
17764;BME280;22245;52.832;13.816;2023-09-30T05:24:56;102072.81;;;13.07;93.92
17764;BME280;22245;52.832;13.816;2023-09-30T05:28:17;102072.81;;;13.07;93.91
17764;BME280;22245;52.832;13.816;2023-09-30T05:31:39;102080.72;;;13.09;94.01
17764;BME280;22245;52.832;13.816;2023-09-30T05:35:02;102088.75;;;13.09;93.95
17764;BME280;22245;52.832;13.816;2023-09-30T05:38:25;102094.84;;;13.11;94.37
17764;BME280;22245;52.832;13.816;2023-09-30T05:41:47;102095.06;;;13.08;94.63
17764;BME280;22245;52.832;13.816;2023-09-30T05:45:10;102094.94;;;13.09;94.66
17764;BME280;22245;52.832;13.816;2023-09-30T05:48:32;102092.25;;;13.09;95.19
17764;BME280;22245;52.832;13.816;2023-09-30T05:51:55;102100.19;;;13.11;95.25
17764;BME280;22245;52.832;13.816;2023-09-30T05:55:17;102101.66;;;13.15;95.06
17764;BME280;22245;52.832;13.816;2023-09-30T05:58:40;102112.22;;;13.16;95.35
17764;BME280;22245;52.832;13.816;2023-09-30T06:02:02;102107.63;;;13.18;95.14
17764;BME280;22245;52.832;13.816;2023-09-30T06:05:25;102108.50;;;13.19;95.12
17764;BME280;22245;52.832;13.816;2023-09-30T06:08:51;102111.25;;;13.17;95.29
17764;BME280;22245;52.832;13.816;2023-09-30T06:12:13;102119.28;;;13.17;95.19
17764;BME280;22245;52.832;13.816;2023-09-30T06:15:37;102123.22;;;13.25;95.10
17764;BME280;22245;52.832;13.816;2023-09-30T06:19:00;102132.19;;;13.24;95.45
17764;BME280;22245;52.832;13.816;2023-09-30T06:22:23;102138.53;;;13.23;95.21
17764;BME280;22245;52.832;13.816;2023-09-30T06:25:50;102135.66;;;13.26;95.65
17764;BME280;22245;52.832;13.816;2023-09-30T06:29:13;102148.06;;;13.27;95.42
17764;BME280;22245;52.832;13.816;2023-09-30T06:32:34;102139.91;;;13.28;94.59
17764;BME280;22245;52.832;13.816;2023-09-30T06:35:57;102135.41;;;13.29;94.59
17764;BME280;22245;52.832;13.816;2023-09-30T06:39:22;102138.31;;;13.26;94.58
17764;BME280;22245;52.832;13.816;2023-09-30T06:42:45;102147.81;;;13.30;95.04
17764;BME280;22245;52.832;13.816;2023-09-30T06:46:07;102154.41;;;13.37;94.70
17764;BME280;22245;52.832;13.816;2023-09-30T06:49:30;102151.63;;;13.39;93.92
17764;BME280;22245;52.832;13.816;2023-09-30T06:52:51;102160.94;;;13.46;93.43
17764;BME280;22245;52.832;13.816;2023-09-30T06:56:13;102171.28;;;13.51;92.91
17764;BME280;22245;52.832;13.816;2023-09-30T06:59:36;102175.56;;;13.53;92.82
17764;BME280;22245;52.832;13.816;2023-09-30T07:02:59;102168.66;;;13.62;92.17
17764;BME280;22245;52.832;13.816;2023-09-30T07:06:22;102172.09;;;13.64;91.63
17764;BME280;22245;52.832;13.816;2023-09-30T07:09:44;102172.09;;;13.64;92.11
17764;BME280;22245;52.832;13.816;2023-09-30T07:13:06;102164.56;;;13.69;91.79
17764;BME280;22245;52.832;13.816;2023-09-30T07:16:29;102175.03;;;13.72;91.89
17764;BME280;22245;52.832;13.816;2023-09-30T07:19:50;102181.72;;;13.78;90.92
17764;BME280;22245;52.832;13.816;2023-09-30T07:23:12;102186.00;;;13.81;90.98
17764;BME280;22245;52.832;13.816;2023-09-30T07:26:39;102186.75;;;13.83;91.14
17764;BME280;22245;52.832;13.816;2023-09-30T07:30:00;102187.25;;;13.88;90.42
17764;BME280;22245;52.832;13.816;2023-09-30T07:33:24;102194.94;;;13.93;90.34
17764;BME280;22245;52.832;13.816;2023-09-30T07:36:46;102199.81;;;13.99;89.23
17764;BME280;22245;52.832;13.816;2023-09-30T07:40:08;102204.53;;;13.95;89.04
17764;BME280;22245;52.832;13.816;2023-09-30T07:43:30;102221.34;;;13.97;89.94
17764;BME280;22245;52.832;13.816;2023-09-30T07:46:52;102226.47;;;14.00;89.31
17764;BME280;22245;52.832;13.816;2023-09-30T07:50:15;102223.44;;;14.05;90.30
17764;BME280;22245;52.832;13.816;2023-09-30T07:53:37;102230.28;;;14.09;88.52
17764;BME280;22245;52.832;13.816;2023-09-30T07:57:00;102218.47;;;14.12;89.39
17764;BME280;22245;52.832;13.816;2023-09-30T08:00:22;102232.13;;;14.20;88.84
17764;BME280;22245;52.832;13.816;2023-09-30T08:03:43;102227.50;;;14.22;88.78
17764;BME280;22245;52.832;13.816;2023-09-30T08:07:06;102229.22;;;14.23;87.61
17764;BME280;22245;52.832;13.816;2023-09-30T08:10:29;102238.38;;;14.21;87.45
17764;BME280;22245;52.832;13.816;2023-09-30T08:13:52;102238.97;;;14.24;87.68
17764;BME280;22245;52.832;13.816;2023-09-30T08:17:13;102246.75;;;14.27;87.34
17764;BME280;22245;52.832;13.816;2023-09-30T08:20:35;102237.41;;;14.33;86.66
17764;BME280;22245;52.832;13.816;2023-09-30T08:23:59;102247.16;;;14.34;86.31
17764;BME280;22245;52.832;13.816;2023-09-30T08:27:20;102256.03;;;14.35;86.52
17764;BME280;22245;52.832;13.816;2023-09-30T08:30:45;102260.31;;;14.37;86.67
17764;BME280;22245;52.832;13.816;2023-09-30T08:34:07;102258.47;;;14.38;85.93
17764;BME280;22245;52.832;13.816;2023-09-30T08:37:28;102259.81;;;14.43;85.68
17764;BME280;22245;52.832;13.816;2023-09-30T08:40:52;102262.50;;;14.43;86.25
17764;BME280;22245;52.832;13.816;2023-09-30T08:44:14;102271.19;;;14.47;86.32
17764;BME280;22245;52.832;13.816;2023-09-30T08:47:36;102254.63;;;14.53;85.76
17764;BME280;22245;52.832;13.816;2023-09-30T08:50:59;102253.50;;;14.56;86.24
17764;BME280;22245;52.832;13.816;2023-09-30T08:54:21;102249.38;;;14.63;85.82
17764;BME280;22245;52.832;13.816;2023-09-30T08:57:44;102251.38;;;14.72;85.80
17764;BME280;22245;52.832;13.816;2023-09-30T09:01:08;102263.06;;;14.83;84.85
17764;BME280;22245;52.832;13.816;2023-09-30T09:04:30;102268.06;;;14.87;84.44
17764;BME280;22245;52.832;13.816;2023-09-30T09:07:52;102258.81;;;14.92;83.75
17764;BME280;22245;52.832;13.816;2023-09-30T09:11:14;102257.59;;;14.96;82.78
17764;BME280;22245;52.832;13.816;2023-09-30T09:14:38;102264.53;;;14.98;82.45
17764;BME280;22245;52.832;13.816;2023-09-30T09:18:00;102263.31;;;15.02;82.46
17764;BME280;22245;52.832;13.816;2023-09-30T09:21:21;102255.84;;;15.06;83.45
17764;BME280;22245;52.832;13.816;2023-09-30T09:24:46;102258.78;;;15.14;82.46
17764;BME280;22245;52.832;13.816;2023-09-30T09:28:07;102261.09;;;15.19;82.56
17764;BME280;22245;52.832;13.816;2023-09-30T09:31:31;102251.56;;;15.26;81.47
17764;BME280;22245;52.832;13.816;2023-09-30T09:35:00;102248.38;;;15.32;81.12
17764;BME280;22245;52.832;13.816;2023-09-30T09:38:22;102235.56;;;15.36;81.20
17764;BME280;22245;52.832;13.816;2023-09-30T09:41:50;102237.00;;;15.40;80.42
17764;BME280;22245;52.832;13.816;2023-09-30T09:45:13;102242.59;;;15.48;80.41
17764;BME280;22245;52.832;13.816;2023-09-30T09:48:36;102239.16;;;15.58;78.22
17764;BME280;22245;52.832;13.816;2023-09-30T09:51:58;102245.59;;;15.67;77.43
17764;BME280;22245;52.832;13.816;2023-09-30T09:55:23;102239.13;;;15.69;77.79
17764;BME280;22245;52.832;13.816;2023-09-30T09:58:47;102237.63;;;15.76;78.08
17764;BME280;22245;52.832;13.816;2023-09-30T10:02:11;102236.84;;;15.86;77.19
17764;BME280;22245;52.832;13.816;2023-09-30T10:05:38;102244.28;;;15.94;76.71
17764;BME280;22245;52.832;13.816;2023-09-30T10:09:00;102246.47;;;16.00;75.81
17764;BME280;22245;52.832;13.816;2023-09-30T10:12:22;102248.88;;;16.03;76.22
17764;BME280;22245;52.832;13.816;2023-09-30T10:15:44;102257.16;;;16.11;74.98
17764;BME280;22245;52.832;13.816;2023-09-30T10:19:09;102252.97;;;16.18;74.60
17764;BME280;22245;52.832;13.816;2023-09-30T10:22:32;102246.09;;;16.26;74.82
17764;BME280;22245;52.832;13.816;2023-09-30T10:25:55;102235.78;;;16.31;74.44
17764;BME280;22245;52.832;13.816;2023-09-30T10:29:39;102241.59;;;16.36;74.29
17764;BME280;22245;52.832;13.816;2023-09-30T10:33:09;102243.63;;;16.44;73.60
17764;BME280;22245;52.832;13.816;2023-09-30T10:36:38;102248.47;;;16.50;72.63
17764;BME280;22245;52.832;13.816;2023-09-30T10:40:01;102253.31;;;16.56;72.17
17764;BME280;22245;52.832;13.816;2023-09-30T10:43:29;102252.22;;;16.59;71.90
17764;BME280;22245;52.832;13.816;2023-09-30T10:46:52;102257.16;;;16.63;71.69
17764;BME280;22245;52.832;13.816;2023-09-30T10:54:08;102250.69;;;16.66;71.02
17764;BME280;22245;52.832;13.816;2023-09-30T10:57:32;102252.00;;;16.72;70.69
17764;BME280;22245;52.832;13.816;2023-09-30T11:00:54;102264.19;;;16.76;69.86
17764;BME280;22245;52.832;13.816;2023-09-30T11:04:16;102258.25;;;16.82;69.32
17764;BME280;22245;52.832;13.816;2023-09-30T11:07:39;102261.41;;;16.87;68.91
17764;BME280;22245;52.832;13.816;2023-09-30T11:11:02;102246.41;;;16.95;65.95
17764;BME280;22245;52.832;13.816;2023-09-30T11:14:26;102234.28;;;17.00;64.61
17764;BME280;22245;52.832;13.816;2023-09-30T11:17:50;102242.91;;;17.04;65.21
17764;BME280;22245;52.832;13.816;2023-09-30T11:21:11;102237.28;;;17.07;65.70
17764;BME280;22245;52.832;13.816;2023-09-30T11:24:35;102231.19;;;17.15;65.35
17764;BME280;22245;52.832;13.816;2023-09-30T11:28:12;102242.56;;;17.18;66.15
17764;BME280;22245;52.832;13.816;2023-09-30T11:31:37;102239.88;;;17.18;65.32
17764;BME280;22245;52.832;13.816;2023-09-30T11:34:58;102234.91;;;17.24;64.29
17764;BME280;22245;52.832;13.816;2023-09-30T11:38:20;102236.50;;;17.26;65.06
17764;BME280;22245;52.832;13.816;2023-09-30T11:41:42;102233.63;;;17.28;64.77
17764;BME280;22245;52.832;13.816;2023-09-30T11:45:18;102223.72;;;17.28;63.51
17764;BME280;22245;52.832;13.816;2023-09-30T11:48:56;102223.16;;;17.34;63.03
17764;BME280;22245;52.832;13.816;2023-09-30T11:52:26;102215.81;;;17.46;61.52
17764;BME280;22245;52.832;13.816;2023-09-30T11:55:47;102208.16;;;17.52;63.78
17764;BME280;22245;52.832;13.816;2023-09-30T11:59:09;102220.06;;;17.59;60.62
17764;BME280;22245;52.832;13.816;2023-09-30T12:02:31;102217.78;;;17.64;61.35
17764;BME280;22245;52.832;13.816;2023-09-30T12:05:57;102210.84;;;17.71;61.03
17764;BME280;22245;52.832;13.816;2023-09-30T12:09:20;102216.66;;;17.76;62.05
17764;BME280;22245;52.832;13.816;2023-09-30T12:12:45;102212.72;;;17.81;62.33
17764;BME280;22245;52.832;13.816;2023-09-30T12:16:08;102219.94;;;17.90;62.50
17764;BME280;22245;52.832;13.816;2023-09-30T12:19:30;102208.84;;;17.93;60.63
17764;BME280;22245;52.832;13.816;2023-09-30T12:22:52;102210.09;;;17.99;60.46
17764;BME280;22245;52.832;13.816;2023-09-30T12:26:14;102204.19;;;18.05;60.13
17764;BME280;22245;52.832;13.816;2023-09-30T12:29:38;102196.81;;;18.07;61.28
17764;BME280;22245;52.832;13.816;2023-09-30T12:33:00;102189.13;;;18.22;59.74
17764;BME280;22245;52.832;13.816;2023-09-30T12:36:22;102201.31;;;18.26;57.12
17764;BME280;22245;52.832;13.816;2023-09-30T12:39:46;102199.72;;;18.33;56.56
17764;BME280;22245;52.832;13.816;2023-09-30T12:43:08;102192.63;;;18.32;55.89
17764;BME280;22245;52.832;13.816;2023-09-30T12:46:30;102203.09;;;18.35;53.60
17764;BME280;22245;52.832;13.816;2023-09-30T12:49:55;102194.16;;;18.35;52.47
17764;BME280;22245;52.832;13.816;2023-09-30T12:53:16;102191.91;;;18.30;52.45
17764;BME280;22245;52.832;13.816;2023-09-30T12:56:39;102196.63;;;18.28;53.44
17764;BME280;22245;52.832;13.816;2023-09-30T13:00:00;102196.16;;;18.33;52.82
17764;BME280;22245;52.832;13.816;2023-09-30T13:03:23;102194.03;;;18.36;53.72
17764;BME280;22245;52.832;13.816;2023-09-30T13:06:44;102209.78;;;18.41;52.86
17764;BME280;22245;52.832;13.816;2023-09-30T13:10:07;102201.53;;;18.43;53.44
17764;BME280;22245;52.832;13.816;2023-09-30T13:13:31;102202.22;;;18.45;52.96
17764;BME280;22245;52.832;13.816;2023-09-30T13:16:53;102198.00;;;18.42;54.00
17764;BME280;22245;52.832;13.816;2023-09-30T13:20:14;102203.38;;;18.42;54.61
17764;BME280;22245;52.832;13.816;2023-09-30T13:23:37;102195.81;;;18.46;54.87
17764;BME280;22245;52.832;13.816;2023-09-30T13:26:58;102197.22;;;18.50;55.08
17764;BME280;22245;52.832;13.816;2023-09-30T13:30:21;102197.50;;;18.57;54.44
17764;BME280;22245;52.832;13.816;2023-09-30T13:33:42;102180.31;;;18.58;53.63
17764;BME280;22245;52.832;13.816;2023-09-30T13:37:04;102189.97;;;18.60;51.92
17764;BME280;22245;52.832;13.816;2023-09-30T13:40:26;102194.50;;;18.60;52.91
17764;BME280;22245;52.832;13.816;2023-09-30T13:43:47;102178.31;;;18.60;53.45
17764;BME280;22245;52.832;13.816;2023-09-30T13:47:10;102181.88;;;18.60;52.75
17764;BME280;22245;52.832;13.816;2023-09-30T13:50:32;102193.06;;;18.65;52.17
17764;BME280;22245;52.832;13.816;2023-09-30T13:53:54;102198.59;;;18.64;52.35
17764;BME280;22245;52.832;13.816;2023-09-30T13:57:15;102190.38;;;18.65;52.39
17764;BME280;22245;52.832;13.816;2023-09-30T14:00:39;102190.50;;;18.64;51.20
17764;BME280;22245;52.832;13.816;2023-09-30T14:04:03;102197.59;;;18.65;50.96
17764;BME280;22245;52.832;13.816;2023-09-30T14:07:26;102204.00;;;18.64;50.86
17764;BME280;22245;52.832;13.816;2023-09-30T14:10:48;102205.69;;;18.65;50.86
17764;BME280;22245;52.832;13.816;2023-09-30T14:14:11;102198.47;;;18.65;50.68
17764;BME280;22245;52.832;13.816;2023-09-30T14:17:33;102190.66;;;18.62;50.66
17764;BME280;22245;52.832;13.816;2023-09-30T14:20:57;102186.28;;;18.61;50.60
17764;BME280;22245;52.832;13.816;2023-09-30T14:24:18;102178.31;;;18.60;49.70
17764;BME280;22245;52.832;13.816;2023-09-30T14:27:40;102166.81;;;18.58;50.87
17764;BME280;22245;52.832;13.816;2023-09-30T14:31:02;102169.50;;;18.58;50.21
17764;BME280;22245;52.832;13.816;2023-09-30T14:34:25;102171.09;;;18.60;49.47
17764;BME280;22245;52.832;13.816;2023-09-30T14:37:47;102167.69;;;18.58;51.72
17764;BME280;22245;52.832;13.816;2023-09-30T14:41:09;102172.47;;;18.64;50.21
17764;BME280;22245;52.832;13.816;2023-09-30T14:44:30;102161.06;;;18.71;49.84
17764;BME280;22245;52.832;13.816;2023-09-30T14:47:52;102164.59;;;18.71;49.44
17764;BME280;22245;52.832;13.816;2023-09-30T14:51:13;102159.06;;;18.73;50.75
17764;BME280;22245;52.832;13.816;2023-09-30T14:54:36;102170.44;;;18.76;49.86
17764;BME280;22245;52.832;13.816;2023-09-30T14:57:58;102157.63;;;18.78;49.68
17764;BME280;22245;52.832;13.816;2023-09-30T15:01:20;102154.47;;;18.83;48.68
17764;BME280;22245;52.832;13.816;2023-09-30T15:04:42;102156.31;;;18.83;48.18
17764;BME280;22245;52.832;13.816;2023-09-30T15:08:04;102161.88;;;18.81;48.66
17764;BME280;22245;52.832;13.816;2023-09-30T15:11:27;102148.22;;;18.83;48.98
17764;BME280;22245;52.832;13.816;2023-09-30T15:14:49;102152.63;;;18.84;49.73
17764;BME280;22245;52.832;13.816;2023-09-30T15:18:12;102154.31;;;18.85;48.56
17764;BME280;22245;52.832;13.816;2023-09-30T15:21:34;102160.88;;;18.82;48.12
17764;BME280;22245;52.832;13.816;2023-09-30T15:24:56;102153.38;;;18.76;48.97
17764;BME280;22245;52.832;13.816;2023-09-30T15:28:19;102154.06;;;18.78;48.78
17764;BME280;22245;52.832;13.816;2023-09-30T15:31:40;102162.72;;;18.82;48.74
17764;BME280;22245;52.832;13.816;2023-09-30T15:35:03;102157.16;;;18.83;49.03
17764;BME280;22245;52.832;13.816;2023-09-30T15:38:26;102153.63;;;18.83;48.99
17764;BME280;22245;52.832;13.816;2023-09-30T15:41:47;102161.16;;;18.79;49.66
17764;BME280;22245;52.832;13.816;2023-09-30T15:45:10;102166.44;;;18.80;49.78
17764;BME280;22245;52.832;13.816;2023-09-30T15:48:32;102159.78;;;18.75;49.36
17764;BME280;22245;52.832;13.816;2023-09-30T15:51:54;102168.19;;;18.72;49.20
17764;BME280;22245;52.832;13.816;2023-09-30T15:55:15;102167.78;;;18.66;49.72
17764;BME280;22245;52.832;13.816;2023-09-30T15:58:37;102175.09;;;18.56;50.30
17764;BME280;22245;52.832;13.816;2023-09-30T16:01:59;102171.13;;;18.50;51.09
17764;BME280;22245;52.832;13.816;2023-09-30T16:05:22;102184.75;;;18.49;52.32
17764;BME280;22245;52.832;13.816;2023-09-30T16:08:43;102184.34;;;18.44;52.83
17764;BME280;22245;52.832;13.816;2023-09-30T16:12:05;102185.94;;;18.36;53.53
17764;BME280;22245;52.832;13.816;2023-09-30T16:15:26;102183.13;;;18.28;55.12
17764;BME280;22245;52.832;13.816;2023-09-30T16:18:49;102172.22;;;18.20;55.57
17764;BME280;22245;52.832;13.816;2023-09-30T16:22:11;102186.84;;;18.07;56.55
17764;BME280;22245;52.832;13.816;2023-09-30T16:25:33;102188.81;;;17.96;57.37
17764;BME280;22245;52.832;13.816;2023-09-30T16:28:55;102191.00;;;17.82;58.12
17764;BME280;22245;52.832;13.816;2023-09-30T16:32:19;102196.66;;;17.69;59.02
17764;BME280;22245;52.832;13.816;2023-09-30T16:35:41;102196.41;;;17.53;60.06
17764;BME280;22245;52.832;13.816;2023-09-30T16:39:03;102191.69;;;17.35;60.58
17764;BME280;22245;52.832;13.816;2023-09-30T16:42:25;102195.78;;;17.19;61.16
17764;BME280;22245;52.832;13.816;2023-09-30T16:45:49;102199.16;;;17.02;61.79
17764;BME280;22245;52.832;13.816;2023-09-30T16:49:11;102200.22;;;16.89;62.69
17764;BME280;22245;52.832;13.816;2023-09-30T16:52:34;102186.72;;;16.70;63.17
17764;BME280;22245;52.832;13.816;2023-09-30T16:55:55;102195.13;;;16.55;64.14
17764;BME280;22245;52.832;13.816;2023-09-30T16:59:17;102189.25;;;16.40;65.01
17764;BME280;22245;52.832;13.816;2023-09-30T17:02:39;102181.41;;;16.27;65.73
17764;BME280;22245;52.832;13.816;2023-09-30T17:06:01;102179.94;;;16.13;65.77
17764;BME280;22245;52.832;13.816;2023-09-30T17:09:24;102186.63;;;15.98;66.15
17764;BME280;22245;52.832;13.816;2023-09-30T17:12:46;102191.16;;;15.86;67.18
17764;BME280;22245;52.832;13.816;2023-09-30T17:16:07;102187.72;;;15.74;67.45
17764;BME280;22245;52.832;13.816;2023-09-30T17:19:29;102183.25;;;15.63;67.42
17764;BME280;22245;52.832;13.816;2023-09-30T17:22:50;102195.00;;;15.51;67.88
17764;BME280;22245;52.832;13.816;2023-09-30T17:26:13;102191.63;;;15.37;68.84
17764;BME280;22245;52.832;13.816;2023-09-30T17:29:34;102191.41;;;15.29;68.62